createdAt,value
2017-03-30T18:35:39.957Z,55.00
2017-03-30T18:36:37.592Z,55.60
2017-03-30T18:37:35.409Z,55.60
2017-03-30T18:38:33.045Z,55.60
2017-03-30T18:39:31.405Z,55.30
2017-03-30T18:40:29.165Z,55.20
2017-03-30T18:41:27.443Z,55.10
2017-03-30T18:42:25.072Z,55.00
2017-03-30T18:44:46.771Z,54.70
2017-03-30T18:45:44.366Z,54.60
2017-03-30T18:46:42.048Z,54.40
2017-03-30T18:47:39.667Z,54.50
2017-03-30T18:48:38.097Z,54.20
2017-03-30T18:49:35.706Z,54.10
2017-03-30T18:50:33.528Z,54.00
2017-03-30T18:51:31.150Z,53.90
2017-03-30T18:52:28.763Z,53.80
2017-03-30T18:53:26.469Z,54.00
2017-03-30T18:54:25.019Z,53.70
2017-03-30T18:55:22.660Z,53.80
2017-03-30T18:56:20.233Z,53.70
2017-03-30T18:57:18.623Z,53.80
2017-03-30T18:58:16.334Z,53.70
2017-03-30T18:59:14.323Z,53.80
2017-03-30T19:00:11.923Z,53.90
2017-03-30T19:01:09.576Z,53.90
2017-03-30T19:02:07.142Z,53.80
2017-03-30T19:03:04.729Z,53.80
2017-03-30T19:04:02.355Z,53.70
2017-03-30T19:04:59.931Z,53.50
2017-03-30T19:05:57.496Z,53.50
2017-03-30T19:06:55.074Z,53.50
2017-03-30T19:07:52.679Z,54.10
2017-03-30T19:08:50.280Z,53.60
2017-03-30T19:09:48.108Z,53.70
2017-03-30T19:10:45.708Z,53.60
2017-03-30T19:11:43.308Z,54.20
2017-03-30T19:12:41.724Z,53.70
2017-03-30T19:13:39.347Z,53.60
2017-03-30T19:14:37.128Z,53.60
2017-03-30T19:15:34.709Z,53.60
2017-03-30T19:16:32.769Z,53.60
2017-03-30T19:17:30.706Z,53.60
2017-03-30T19:18:28.758Z,53.50
2017-03-30T19:19:27.139Z,53.60
2017-03-30T19:20:24.720Z,53.50
2017-03-30T19:21:22.309Z,53.60
2017-03-30T19:22:19.940Z,53.60
2017-03-30T19:23:19.483Z,53.70
2017-03-30T19:24:17.125Z,53.60
2017-03-30T19:25:15.111Z,53.70
2017-03-30T19:26:12.950Z,53.70
2017-03-30T19:27:10.533Z,53.70
2017-03-30T19:28:08.333Z,53.60
2017-03-30T19:29:05.953Z,53.60
2017-03-30T19:30:03.540Z,53.70
2017-03-30T19:31:01.161Z,53.70
2017-03-30T19:31:59.500Z,53.60
2017-03-30T19:32:57.844Z,53.70
2017-03-30T19:33:56.188Z,53.70
2017-03-30T19:34:53.757Z,53.70
2017-03-30T19:35:51.340Z,53.60
2017-03-30T19:36:48.929Z,53.60
2017-03-30T19:37:46.521Z,53.70
2017-03-30T19:38:44.103Z,53.70
2017-03-30T19:39:41.704Z,53.70
2017-03-30T19:40:39.309Z,53.70
2017-03-30T19:41:36.973Z,53.70
2017-03-30T19:42:35.337Z,53.80
2017-03-30T19:43:34.600Z,53.80
2017-03-30T19:44:32.317Z,53.80
2017-03-30T19:45:29.953Z,53.80
2017-03-30T19:46:27.519Z,53.80
2017-03-30T19:47:25.084Z,53.80
2017-03-30T19:48:22.648Z,53.80
2017-03-30T19:49:20.323Z,53.80
2017-03-30T19:50:19.419Z,53.80
2017-03-30T19:51:16.990Z,53.90
2017-03-30T19:52:14.796Z,53.70
2017-03-30T19:53:18.842Z,53.80
2017-03-30T19:54:16.759Z,53.80
2017-03-30T19:55:14.643Z,53.80
2017-03-30T19:56:12.256Z,54.40
2017-03-30T19:57:10.042Z,53.80
2017-03-30T19:58:08.493Z,53.80
2017-03-30T19:59:06.256Z,53.80
2017-03-30T20:00:04.067Z,54.40
2017-03-30T20:01:02.061Z,53.80
2017-03-30T20:01:59.842Z,53.80
2017-03-30T20:02:57.440Z,53.80
2017-03-30T20:03:55.019Z,53.80
2017-03-30T20:04:52.694Z,53.90
2017-03-30T20:05:50.328Z,53.90
2017-03-30T20:07:51.880Z,53.50
2017-03-30T20:08:49.477Z,52.80
2017-03-30T20:09:47.056Z,52.70
2017-03-30T20:10:44.636Z,52.30
2017-03-30T20:11:42.225Z,51.70
2017-03-30T20:12:39.814Z,51.10
2017-03-30T20:13:37.405Z,51.10
2017-03-30T20:14:35.037Z,51.40
2017-03-30T20:15:33.144Z,51.00
2017-03-30T20:16:30.716Z,51.10
2017-03-30T20:17:28.345Z,51.00
2017-03-30T20:18:25.994Z,51.90
2017-03-30T20:19:23.605Z,51.30
2017-03-30T20:20:21.940Z,51.30
2017-03-30T20:21:19.636Z,51.30
2017-03-30T20:22:17.270Z,51.40
2017-03-30T20:23:15.651Z,51.50
2017-03-30T20:24:13.233Z,51.40
2017-03-30T20:25:10.862Z,51.40
2017-03-30T20:26:08.501Z,51.40
2017-03-30T20:27:06.869Z,51.40
2017-03-30T20:28:05.373Z,51.40
2017-03-30T20:29:02.986Z,51.40
2017-03-30T20:30:00.576Z,51.30
2017-03-30T20:30:58.195Z,51.30
2017-03-30T20:31:56.565Z,51.90
2017-03-30T20:32:54.156Z,51.20
2017-03-30T20:33:51.761Z,51.20
2017-03-30T20:34:49.449Z,51.20
2017-03-30T20:35:47.068Z,51.20
2017-03-30T20:36:44.711Z,51.20
2017-03-30T20:37:42.284Z,51.20
2017-03-30T20:38:39.869Z,51.30
2017-03-30T20:39:37.440Z,51.20
2017-03-30T20:40:35.040Z,51.20
2017-03-30T20:41:32.730Z,51.10
2017-03-30T20:42:30.313Z,51.10
2017-03-30T20:43:28.673Z,51.20
2017-03-30T20:44:26.320Z,51.70
2017-03-30T20:45:24.024Z,51.40
2017-03-30T20:46:21.732Z,51.10
2017-03-30T20:47:19.416Z,51.10
2017-03-30T20:48:17.025Z,51.10
2017-03-30T20:49:15.413Z,51.40
2017-03-30T20:50:13.045Z,51.10
2017-03-30T20:51:10.624Z,51.20
2017-03-30T20:52:08.368Z,51.20
2017-03-30T20:53:06.000Z,51.10
2017-03-30T20:54:05.246Z,51.20
2017-03-30T20:55:02.826Z,51.10
2017-03-30T20:56:02.054Z,51.00
2017-03-30T20:57:01.463Z,51.10
2017-03-30T20:57:59.072Z,51.00
2017-03-30T20:58:58.430Z,50.50
2017-03-30T20:59:56.024Z,51.00
2017-03-30T21:00:53.618Z,51.00
2017-03-30T21:01:51.638Z,51.00
2017-03-30T21:02:50.031Z,51.10
2017-03-30T21:03:47.944Z,51.10
2017-03-30T21:04:45.577Z,51.20
2017-03-30T21:05:43.158Z,51.20
2017-03-30T21:06:40.772Z,51.20
2017-03-30T21:07:38.367Z,51.20
